createdAt,value
2023-04-09T09:25:23.488Z,963.89
2023-04-09T09:26:20.618Z,963.27
2023-04-09T09:27:20.591Z,963.00
2023-04-09T09:28:20.649Z,961.90
2023-04-09T09:29:20.806Z,961.94
2023-04-09T09:30:20.660Z,962.14
2023-04-09T09:31:20.620Z,962.29
2023-04-09T09:32:20.693Z,961.88
2023-04-09T09:33:20.722Z,961.59
2023-04-09T09:34:20.737Z,961.69
2023-04-09T09:35:20.676Z,961.90
2023-04-09T09:36:20.674Z,961.82
2023-04-09T09:37:20.657Z,961.49
2023-04-09T09:38:20.683Z,961.42
2023-04-09T09:39:20.681Z,961.74
2023-04-09T09:40:20.852Z,961.88
2023-04-09T09:41:20.740Z,962.14
2023-04-09T09:42:20.907Z,961.75
2023-04-09T09:43:20.763Z,961.97
2023-04-09T09:44:20.793Z,961.99
2023-04-09T09:45:20.936Z,961.91
2023-04-09T09:46:20.853Z,962.13
2023-04-09T09:47:20.805Z,962.00
2023-04-09T09:48:21.011Z,962.30
2023-04-09T09:49:20.965Z,961.98
2023-04-09T09:50:21.691Z,961.83
2023-04-09T09:51:21.045Z,962.36
2023-04-09T09:52:21.084Z,962.11
2023-04-09T09:53:21.057Z,961.58
2023-04-09T09:54:21.045Z,961.46
2023-04-09T09:55:21.049Z,962.09
2023-04-09T09:56:21.163Z,961.81
2023-04-09T09:57:21.140Z,961.30
2023-04-09T09:58:21.151Z,961.65
2023-04-09T09:59:21.233Z,961.33
2023-04-09T10:00:23.377Z,961.62
2023-04-09T10:01:21.228Z,961.89
2023-04-09T10:02:21.469Z,961.30
2023-04-09T10:03:21.400Z,961.66
2023-04-09T10:04:21.298Z,961.09
2023-04-09T10:05:21.256Z,961.32
2023-04-09T10:06:21.261Z,960.73
2023-04-09T10:07:21.252Z,960.60
2023-04-09T10:08:21.258Z,960.62
2023-04-09T10:09:21.317Z,960.42
2023-04-09T10:10:21.315Z,960.36
2023-04-09T10:11:21.315Z,960.14
2023-04-09T10:12:21.467Z,960.07
2023-04-09T10:13:21.358Z,960.05
2023-04-09T10:14:21.444Z,960.75
2023-04-09T10:15:21.488Z,960.53
2023-04-09T10:16:21.519Z,961.39
2023-04-09T10:17:21.681Z,960.46
2023-04-09T10:18:21.462Z,960.43
2023-04-09T10:19:21.538Z,960.19
2023-04-09T10:20:21.576Z,961.00
2023-04-09T10:21:21.641Z,960.94
2023-04-09T10:22:21.649Z,961.53
2023-04-09T10:23:21.701Z,960.38
2023-04-09T10:24:24.262Z,960.35
2023-04-09T10:25:21.772Z,961.06
2023-04-09T10:26:21.758Z,960.87
2023-04-09T10:27:21.751Z,961.40
2023-04-09T10:28:21.745Z,960.37
2023-04-09T10:29:21.771Z,959.55
2023-04-09T10:30:22.456Z,959.93
2023-04-09T10:31:21.716Z,959.07
2023-04-09T10:32:21.849Z,958.04
2023-04-09T10:33:21.741Z,958.00
2023-04-09T10:34:21.697Z,958.15
2023-04-09T10:35:21.746Z,958.03
2023-04-09T10:36:21.779Z,957.77
2023-04-09T10:37:21.715Z,958.11
2023-04-09T10:38:21.746Z,958.16
2023-04-09T10:39:21.830Z,958.43
2023-04-09T10:40:21.881Z,958.66
2023-04-09T10:41:21.763Z,958.62
2023-04-09T10:42:21.779Z,958.14
2023-04-09T10:43:21.751Z,958.73
2023-04-09T10:44:21.741Z,959.05
2023-04-09T10:45:22.604Z,959.17
2023-04-09T10:46:21.778Z,958.61
2023-04-09T10:47:21.779Z,959.66
2023-04-09T10:48:21.821Z,959.14
2023-04-09T10:49:21.743Z,958.52
2023-04-09T10:50:22.230Z,958.65
2023-04-09T10:51:21.837Z,958.98
2023-04-09T10:52:21.937Z,959.30
2023-04-09T10:53:21.917Z,959.06
2023-04-09T10:54:21.960Z,958.98
2023-04-09T10:55:22.058Z,959.13
2023-04-09T10:56:21.986Z,959.93
2023-04-09T10:57:21.992Z,960.56
2023-04-09T10:58:21.997Z,959.87
2023-04-09T10:59:22.048Z,959.63
2023-04-09T11:00:22.321Z,960.30
2023-04-09T11:01:22.053Z,959.20
2023-04-09T11:02:22.315Z,959.44
2023-04-09T11:03:22.295Z,959.70
2023-04-09T11:04:22.297Z,960.03
2023-04-09T11:05:22.167Z,959.90
2023-04-09T11:06:22.222Z,959.93
2023-04-09T11:07:22.355Z,959.33
2023-04-09T11:08:22.360Z,959.10
2023-04-09T11:09:22.299Z,958.92
2023-04-09T11:10:22.643Z,958.28
2023-04-09T11:11:22.309Z,958.83
2023-04-09T11:12:22.372Z,958.88
2023-04-09T11:13:22.432Z,959.04
2023-04-09T11:14:22.531Z,959.05
2023-04-09T11:15:22.445Z,958.81
2023-04-09T11:16:24.796Z,958.96
2023-04-09T11:17:22.466Z,959.35
2023-04-09T11:18:22.541Z,958.43
2023-04-09T11:19:22.524Z,958.43
2023-04-09T11:20:22.841Z,958.35
2023-04-09T11:21:22.487Z,958.46
2023-04-09T11:22:22.500Z,958.63
2023-04-09T11:23:22.565Z,958.72
2023-04-09T11:24:22.544Z,958.60
2023-04-09T11:25:22.517Z,958.78
2023-04-09T11:26:22.531Z,958.62
2023-04-09T11:27:22.509Z,958.82
2023-04-09T11:28:22.556Z,958.19
2023-04-09T11:29:22.515Z,958.31
2023-04-09T11:30:22.567Z,958.28
2023-04-09T11:31:22.596Z,958.49
2023-04-09T11:32:22.717Z,958.43
2023-04-09T11:33:22.618Z,958.28
2023-04-09T11:34:22.567Z,958.51
2023-04-09T11:35:22.632Z,958.87
2023-04-09T11:36:22.571Z,958.41
2023-04-09T11:37:22.527Z,958.23
2023-04-09T11:38:22.508Z,958.36
2023-04-09T11:39:22.544Z,958.34
2023-04-09T11:40:22.866Z,958.58
2023-04-09T11:41:22.556Z,957.83
2023-04-09T11:42:22.599Z,957.75
2023-04-09T11:43:22.595Z,958.13
2023-04-09T11:44:22.666Z,957.98
2023-04-09T11:45:22.625Z,957.35
2023-04-09T11:46:22.698Z,957.46
2023-04-09T11:47:22.618Z,957.86
2023-04-09T11:48:22.712Z,958.06
2023-04-09T11:49:22.561Z,957.44
2023-04-09T11:50:22.918Z,958.24
2023-04-09T11:51:22.592Z,957.25
2023-04-09T11:52:22.564Z,957.21
2023-04-09T11:53:22.604Z,957.05
2023-04-09T11:54:22.784Z,956.97
2023-04-09T11:55:22.637Z,957.04
2023-04-09T11:56:22.634Z,957.46
2023-04-09T11:57:22.613Z,957.24
2023-04-09T11:58:22.695Z,957.43
2023-04-09T11:59:22.620Z,957.96
2023-04-09T12:00:22.946Z,956.96
2023-04-09T12:01:22.671Z,956.73
2023-04-09T12:02:22.794Z,957.62
2023-04-09T12:03:22.944Z,957.16
2023-04-09T12:04:22.707Z,956.71
2023-04-09T12:05:22.655Z,956.60
2023-04-09T12:06:22.771Z,956.32
2023-04-09T12:07:22.642Z,956.69
2023-04-09T12:08:22.686Z,957.14
2023-04-09T12:09:22.635Z,957.59
2023-04-09T12:10:22.782Z,957.95
2023-04-09T12:11:22.728Z,957.55
2023-04-09T12:12:22.632Z,958.14
2023-04-09T12:13:22.707Z,957.90
2023-04-09T12:14:22.733Z,957.49
2023-04-09T12:15:22.639Z,957.63
2023-04-09T12:16:22.858Z,957.40
2023-04-09T12:17:22.680Z,957.62
2023-04-09T12:18:22.861Z,957.24
2023-04-09T12:19:22.659Z,957.11
2023-04-09T12:20:22.736Z,957.50
2023-04-09T12:21:22.713Z,957.48
2023-04-09T12:22:22.700Z,957.88
2023-04-09T12:23:22.733Z,957.29
2023-04-09T12:24:22.686Z,957.04
2023-04-09T12:25:22.865Z,957.35
2023-04-09T12:26:22.764Z,957.85
2023-04-09T12:27:22.676Z,957.58
2023-04-09T12:28:22.693Z,957.60
2023-04-09T12:29:22.791Z,957.72
2023-04-09T12:30:22.750Z,957.83
2023-04-09T12:31:22.769Z,958.32
2023-04-09T12:32:22.764Z,958.58
2023-04-09T12:33:22.841Z,958.96
2023-04-09T12:34:22.674Z,959.02
2023-04-09T12:35:22.805Z,958.00
2023-04-09T12:36:22.759Z,957.82
2023-04-09T12:37:22.667Z,957.70
2023-04-09T12:38:22.757Z,957.53
2023-04-09T12:39:22.796Z,957.90
2023-04-09T12:40:22.839Z,957.87
2023-04-09T12:41:22.758Z,958.04
2023-04-09T12:42:22.885Z,958.15
2023-04-09T12:43:22.927Z,958.08
2023-04-09T12:44:22.903Z,958.43
2023-04-09T12:45:22.921Z,958.09
2023-04-09T12:46:22.940Z,958.38
2023-04-09T12:47:22.965Z,958.73
2023-04-09T12:48:22.948Z,958.52
2023-04-09T12:49:22.931Z,957.58
2023-04-09T12:50:23.013Z,957.71
2023-04-09T12:51:23.163Z,958.29
2023-04-09T12:52:23.027Z,957.98
2023-04-09T12:53:23.076Z,957.90
2023-04-09T12:54:23.054Z,958.28
2023-04-09T12:55:23.087Z,958.57
2023-04-09T12:56:23.134Z,958.54
2023-04-09T12:57:23.292Z,957.56
2023-04-09T12:58:23.345Z,957.76
2023-04-09T12:59:24.140Z,958.10
2023-04-09T13:00:23.244Z,957.64
2023-04-09T13:01:23.286Z,958.20
2023-04-09T13:02:23.485Z,957.48
2023-04-09T13:03:23.479Z,957.89
2023-04-09T13:04:25.262Z,957.62
2023-04-09T13:05:23.402Z,957.48
2023-04-09T13:06:23.284Z,957.49
2023-04-09T13:07:23.301Z,957.92
2023-04-09T13:08:23.468Z,958.06
2023-04-09T13:09:23.325Z,957.54
2023-04-09T13:10:23.851Z,957.64
2023-04-09T13:11:23.341Z,956.83
2023-04-09T13:12:23.315Z,956.46
2023-04-09T13:13:23.341Z,957.17
